sensor_id;sensor_type;location;lat;lon;timestamp;temperature;humidity
54158;DHT22;40065;49.894;10.358;2023-04-15T00:01:01;6.20;99.90
54158;DHT22;40065;49.894;10.358;2023-04-15T00:06:04;6.20;99.90
54158;DHT22;40065;49.894;10.358;2023-04-15T00:11:06;6.20;99.90
54158;DHT22;40065;49.894;10.358;2023-04-15T00:16:08;6.30;99.90
54158;DHT22;40065;49.894;10.358;2023-04-15T00:21:11;6.40;99.90
54158;DHT22;40065;49.894;10.358;2023-04-15T00:26:13;6.40;99.90
54158;DHT22;40065;49.894;10.358;2023-04-15T00:31:15;6.50;99.90
54158;DHT22;40065;49.894;10.358;2023-04-15T00:36:17;6.40;99.90
54158;DHT22;40065;49.894;10.358;2023-04-15T00:41:19;6.40;99.90
54158;DHT22;40065;49.894;10.358;2023-04-15T00:46:21;6.40;99.90
54158;DHT22;40065;49.894;10.358;2023-04-15T00:51:23;6.40;99.90
54158;DHT22;40065;49.894;10.358;2023-04-15T00:56:27;6.40;99.90
54158;DHT22;40065;49.894;10.358;2023-04-15T01:01:29;6.40;99.90
54158;DHT22;40065;49.894;10.358;2023-04-15T01:06:32;6.40;99.90
54158;DHT22;40065;49.894;10.358;2023-04-15T01:11:34;6.40;99.90
54158;DHT22;40065;49.894;10.358;2023-04-15T01:16:37;6.30;99.90
54158;DHT22;40065;49.894;10.358;2023-04-15T01:21:40;6.70;99.90
54158;DHT22;40065;49.894;10.358;2023-04-15T01:26:43;6.50;99.90
54158;DHT22;40065;49.894;10.358;2023-04-15T01:31:50;6.40;99.90
54158;DHT22;40065;49.894;10.358;2023-04-15T01:36:53;6.50;99.90
54158;DHT22;40065;49.894;10.358;2023-04-15T01:41:55;6.50;99.90
54158;DHT22;40065;49.894;10.358;2023-04-15T01:46:58;6.40;99.90
54158;DHT22;40065;49.894;10.358;2023-04-15T01:52:00;6.40;99.90
54158;DHT22;40065;49.894;10.358;2023-04-15T01:57:02;6.70;99.90
54158;DHT22;40065;49.894;10.358;2023-04-15T02:02:04;6.60;99.90
54158;DHT22;40065;49.894;10.358;2023-04-15T02:07:06;6.40;99.90
54158;DHT22;40065;49.894;10.358;2023-04-15T02:12:09;6.40;99.90
54158;DHT22;40065;49.894;10.358;2023-04-15T02:17:11;6.20;99.90
54158;DHT22;40065;49.894;10.358;2023-04-15T02:22:13;6.00;99.90
54158;DHT22;40065;49.894;10.358;2023-04-15T02:27:20;6.10;99.90
54158;DHT22;40065;49.894;10.358;2023-04-15T02:32:24;6.10;99.90
54158;DHT22;40065;49.894;10.358;2023-04-15T02:37:28;6.00;99.90
54158;DHT22;40065;49.894;10.358;2023-04-15T02:42:32;6.00;99.90
54158;DHT22;40065;49.894;10.358;2023-04-15T02:47:35;6.00;99.90
54158;DHT22;40065;49.894;10.358;2023-04-15T02:52:40;5.90;99.90
54158;DHT22;40065;49.894;10.358;2023-04-15T02:57:42;5.90;99.90
54158;DHT22;40065;49.894;10.358;2023-04-15T03:02:45;5.60;99.90
54158;DHT22;40065;49.894;10.358;2023-04-15T03:07:48;5.80;99.90
54158;DHT22;40065;49.894;10.358;2023-04-15T03:12:49;5.90;99.90
54158;DHT22;40065;49.894;10.358;2023-04-15T03:17:54;5.90;99.90
54158;DHT22;40065;49.894;10.358;2023-04-15T03:22:56;6.00;99.90
54158;DHT22;40065;49.894;10.358;2023-04-15T03:27:59;5.90;99.90
54158;DHT22;40065;49.894;10.358;2023-04-15T03:33:01;6.00;99.90
54158;DHT22;40065;49.894;10.358;2023-04-15T03:38:03;5.80;99.90
54158;DHT22;40065;49.894;10.358;2023-04-15T03:43:05;5.60;99.90
54158;DHT22;40065;49.894;10.358;2023-04-15T03:48:07;5.70;99.90
54158;DHT22;40065;49.894;10.358;2023-04-15T03:53:21;5.90;99.90
54158;DHT22;40065;49.894;10.358;2023-04-15T03:58:23;5.80;99.90
54158;DHT22;40065;49.894;10.358;2023-04-15T04:03:24;6.10;99.90
54158;DHT22;40065;49.894;10.358;2023-04-15T04:08:27;5.70;99.90
54158;DHT22;40065;49.894;10.358;2023-04-15T04:13:28;6.00;99.90
54158;DHT22;40065;49.894;10.358;2023-04-15T04:18:31;6.00;99.90
54158;DHT22;40065;49.894;10.358;2023-04-15T04:23:33;5.80;99.90
54158;DHT22;40065;49.894;10.358;2023-04-15T04:28:34;5.80;99.90
54158;DHT22;40065;49.894;10.358;2023-04-15T04:33:36;6.20;99.90
54158;DHT22;40065;49.894;10.358;2023-04-15T04:38:38;6.40;99.90
54158;DHT22;40065;49.894;10.358;2023-04-15T04:43:40;6.50;99.90
54158;DHT22;40065;49.894;10.358;2023-04-15T04:48:42;6.60;99.90
54158;DHT22;40065;49.894;10.358;2023-04-15T04:53:45;6.50;99.90
54158;DHT22;40065;49.894;10.358;2023-04-15T04:58:47;6.40;99.90
54158;DHT22;40065;49.894;10.358;2023-04-15T05:03:48;6.40;99.90
54158;DHT22;40065;49.894;10.358;2023-04-15T05:08:50;6.60;99.90
54158;DHT22;40065;49.894;10.358;2023-04-15T05:13:52;6.50;99.90
54158;DHT22;40065;49.894;10.358;2023-04-15T05:18:54;6.60;99.90
54158;DHT22;40065;49.894;10.358;2023-04-15T05:23:56;6.70;99.90
54158;DHT22;40065;49.894;10.358;2023-04-15T05:28:57;6.90;99.90
54158;DHT22;40065;49.894;10.358;2023-04-15T05:33:59;7.10;99.90
54158;DHT22;40065;49.894;10.358;2023-04-15T05:39:02;7.10;99.90
54158;DHT22;40065;49.894;10.358;2023-04-15T05:44:04;7.40;99.90
54158;DHT22;40065;49.894;10.358;2023-04-15T05:49:06;7.90;99.90
54158;DHT22;40065;49.894;10.358;2023-04-15T05:54:08;8.00;99.90
54158;DHT22;40065;49.894;10.358;2023-04-15T05:59:10;8.10;99.90
54158;DHT22;40065;49.894;10.358;2023-04-15T06:04:12;8.10;99.90
54158;DHT22;40065;49.894;10.358;2023-04-15T06:09:14;8.30;99.90
54158;DHT22;40065;49.894;10.358;2023-04-15T06:14:16;8.20;99.90
54158;DHT22;40065;49.894;10.358;2023-04-15T06:19:18;8.20;99.90
54158;DHT22;40065;49.894;10.358;2023-04-15T06:24:20;8.30;99.90
54158;DHT22;40065;49.894;10.358;2023-04-15T06:29:22;8.20;99.90
54158;DHT22;40065;49.894;10.358;2023-04-15T06:34:23;8.50;99.90
54158;DHT22;40065;49.894;10.358;2023-04-15T06:39:25;8.70;99.90
54158;DHT22;40065;49.894;10.358;2023-04-15T06:44:28;9.10;99.90
54158;DHT22;40065;49.894;10.358;2023-04-15T06:49:31;9.60;99.90
54158;DHT22;40065;49.894;10.358;2023-04-15T06:54:34;10.40;99.90
54158;DHT22;40065;49.894;10.358;2023-04-15T06:59:35;11.20;99.90
54158;DHT22;40065;49.894;10.358;2023-04-15T07:04:37;11.20;99.90
54158;DHT22;40065;49.894;10.358;2023-04-15T07:09:40;11.20;99.90
54158;DHT22;40065;49.894;10.358;2023-04-15T07:14:42;10.70;99.90
54158;DHT22;40065;49.894;10.358;2023-04-15T07:19:44;10.50;99.90
54158;DHT22;40065;49.894;10.358;2023-04-15T07:24:45;10.30;99.90
54158;DHT22;40065;49.894;10.358;2023-04-15T07:29:47;10.10;99.90
54158;DHT22;40065;49.894;10.358;2023-04-15T07:34:49;9.80;99.90
54158;DHT22;40065;49.894;10.358;2023-04-15T07:39:51;9.70;99.90
54158;DHT22;40065;49.894;10.358;2023-04-15T07:44:53;9.80;99.90
54158;DHT22;40065;49.894;10.358;2023-04-15T07:49:55;9.60;99.90
54158;DHT22;40065;49.894;10.358;2023-04-15T07:54:57;9.70;99.90
54158;DHT22;40065;49.894;10.358;2023-04-15T07:59:59;9.70;99.90
54158;DHT22;40065;49.894;10.358;2023-04-15T08:05:01;9.50;99.90
54158;DHT22;40065;49.894;10.358;2023-04-15T08:10:05;9.50;99.90
54158;DHT22;40065;49.894;10.358;2023-04-15T08:15:07;9.30;99.90
54158;DHT22;40065;49.894;10.358;2023-04-15T08:20:10;9.40;99.90
54158;DHT22;40065;49.894;10.358;2023-04-15T08:25:12;9.10;99.90
54158;DHT22;40065;49.894;10.358;2023-04-15T08:30:14;9.00;99.90
54158;DHT22;40065;49.894;10.358;2023-04-15T08:35:15;9.00;99.90
54158;DHT22;40065;49.894;10.358;2023-04-15T08:40:17;9.30;99.90
54158;DHT22;40065;49.894;10.358;2023-04-15T08:45:19;9.30;99.90
54158;DHT22;40065;49.894;10.358;2023-04-15T08:50:22;9.40;99.90
54158;DHT22;40065;49.894;10.358;2023-04-15T08:55:29;9.70;99.90
54158;DHT22;40065;49.894;10.358;2023-04-15T09:00:33;9.90;99.90
54158;DHT22;40065;49.894;10.358;2023-04-15T09:05:36;9.90;99.90
54158;DHT22;40065;49.894;10.358;2023-04-15T09:10:38;10.20;99.90
54158;DHT22;40065;49.894;10.358;2023-04-15T09:15:42;9.90;99.90
54158;DHT22;40065;49.894;10.358;2023-04-15T09:20:44;9.70;99.90
54158;DHT22;40065;49.894;10.358;2023-04-15T09:25:47;9.70;99.90
54158;DHT22;40065;49.894;10.358;2023-04-15T09:30:51;9.70;99.90
54158;DHT22;40065;49.894;10.358;2023-04-15T09:36:01;9.80;99.90
54158;DHT22;40065;49.894;10.358;2023-04-15T09:41:03;10.00;99.90
54158;DHT22;40065;49.894;10.358;2023-04-15T09:46:17;10.00;99.90
54158;DHT22;40065;49.894;10.358;2023-04-15T09:51:33;10.20;99.90
54158;DHT22;40065;49.894;10.358;2023-04-15T09:56:37;9.70;99.90
54158;DHT22;40065;49.894;10.358;2023-04-15T10:01:42;9.70;99.90
54158;DHT22;40065;49.894;10.358;2023-04-15T10:06:44;9.90;99.90
54158;DHT22;40065;49.894;10.358;2023-04-15T10:11:47;10.20;99.90
54158;DHT22;40065;49.894;10.358;2023-04-15T10:16:51;10.10;99.90
54158;DHT22;40065;49.894;10.358;2023-04-15T10:21:54;10.60;99.90
54158;DHT22;40065;49.894;10.358;2023-04-15T10:26:57;10.70;99.90
54158;DHT22;40065;49.894;10.358;2023-04-15T10:31:59;10.50;99.90
54158;DHT22;40065;49.894;10.358;2023-04-15T10:37:02;10.30;99.90
54158;DHT22;40065;49.894;10.358;2023-04-15T10:47:10;9.80;99.90
54158;DHT22;40065;49.894;10.358;2023-04-15T10:52:14;9.90;99.90
54158;DHT22;40065;49.894;10.358;2023-04-15T10:57:23;10.10;99.90
54158;DHT22;40065;49.894;10.358;2023-04-15T11:03:07;10.20;99.90
54158;DHT22;40065;49.894;10.358;2023-04-15T11:08:21;10.00;99.90
54158;DHT22;40065;49.894;10.358;2023-04-15T11:13:49;10.00;99.90
54158;DHT22;40065;49.894;10.358;2023-04-15T11:18:54;10.00;99.90
54158;DHT22;40065;49.894;10.358;2023-04-15T11:23:57;10.20;99.90
54158;DHT22;40065;49.894;10.358;2023-04-15T11:28:58;9.90;99.90
54158;DHT22;40065;49.894;10.358;2023-04-15T11:34:02;10.00;99.90
54158;DHT22;40065;49.894;10.358;2023-04-15T11:39:06;9.70;99.90
54158;DHT22;40065;49.894;10.358;2023-04-15T11:44:18;9.60;99.90
54158;DHT22;40065;49.894;10.358;2023-04-15T11:49:30;10.00;99.90
54158;DHT22;40065;49.894;10.358;2023-04-15T11:54:35;10.00;99.90
54158;DHT22;40065;49.894;10.358;2023-04-15T11:59:42;9.80;99.90
54158;DHT22;40065;49.894;10.358;2023-04-15T12:04:46;9.80;99.90
54158;DHT22;40065;49.894;10.358;2023-04-15T12:10:00;9.90;99.90
54158;DHT22;40065;49.894;10.358;2023-04-15T12:15:14;9.70;99.90
54158;DHT22;40065;49.894;10.358;2023-04-15T12:20:25;9.80;99.90
54158;DHT22;40065;49.894;10.358;2023-04-15T12:25:34;9.70;99.90
54158;DHT22;40065;49.894;10.358;2023-04-15T12:30:50;9.60;99.90
54158;DHT22;40065;49.894;10.358;2023-04-15T12:35:53;9.70;99.90
54158;DHT22;40065;49.894;10.358;2023-04-15T12:40:54;9.70;99.90
54158;DHT22;40065;49.894;10.358;2023-04-15T12:45:56;10.00;99.90
54158;DHT22;40065;49.894;10.358;2023-04-15T12:50:58;10.30;99.90
54158;DHT22;40065;49.894;10.358;2023-04-15T12:56:00;10.30;99.90
54158;DHT22;40065;49.894;10.358;2023-04-15T13:01:07;10.50;99.90
54158;DHT22;40065;49.894;10.358;2023-04-15T13:06:17;10.50;99.90
54158;DHT22;40065;49.894;10.358;2023-04-15T13:11:21;10.60;99.90
54158;DHT22;40065;49.894;10.358;2023-04-15T13:16:23;10.30;99.90
54158;DHT22;40065;49.894;10.358;2023-04-15T13:21:25;10.10;99.90
54158;DHT22;40065;49.894;10.358;2023-04-15T13:26:27;10.30;99.90
54158;DHT22;40065;49.894;10.358;2023-04-15T13:31:29;9.90;99.90
54158;DHT22;40065;49.894;10.358;2023-04-15T13:36:31;10.00;99.90
54158;DHT22;40065;49.894;10.358;2023-04-15T13:41:33;9.80;99.90
54158;DHT22;40065;49.894;10.358;2023-04-15T13:46:35;9.80;99.90
54158;DHT22;40065;49.894;10.358;2023-04-15T13:51:38;9.80;99.90
54158;DHT22;40065;49.894;10.358;2023-04-15T13:56:41;9.90;99.90
54158;DHT22;40065;49.894;10.358;2023-04-15T14:01:42;9.80;99.90
54158;DHT22;40065;49.894;10.358;2023-04-15T14:06:45;9.80;99.90
54158;DHT22;40065;49.894;10.358;2023-04-15T14:11:50;9.80;99.90
54158;DHT22;40065;49.894;10.358;2023-04-15T14:22:47;9.70;99.90
54158;DHT22;40065;49.894;10.358;2023-04-15T14:28:17;9.80;99.90
54158;DHT22;40065;49.894;10.358;2023-04-15T14:33:30;10.10;99.90
54158;DHT22;40065;49.894;10.358;2023-04-15T14:38:43;10.40;99.90
54158;DHT22;40065;49.894;10.358;2023-04-15T14:44:13;10.40;99.90
54158;DHT22;40065;49.894;10.358;2023-04-15T14:49:18;10.30;99.90
54158;DHT22;40065;49.894;10.358;2023-04-15T14:54:20;10.30;99.90
54158;DHT22;40065;49.894;10.358;2023-04-15T14:59:23;10.30;99.90
54158;DHT22;40065;49.894;10.358;2023-04-15T15:04:25;10.00;99.90
54158;DHT22;40065;49.894;10.358;2023-04-15T15:09:27;10.00;99.90
54158;DHT22;40065;49.894;10.358;2023-04-15T15:14:29;9.70;99.90
54158;DHT22;40065;49.894;10.358;2023-04-15T15:19:31;9.60;99.90
54158;DHT22;40065;49.894;10.358;2023-04-15T15:24:33;9.80;99.90
54158;DHT22;40065;49.894;10.358;2023-04-15T15:29:36;9.80;99.90
54158;DHT22;40065;49.894;10.358;2023-04-15T15:34:38;9.70;99.90
54158;DHT22;40065;49.894;10.358;2023-04-15T15:39:40;9.80;99.90
54158;DHT22;40065;49.894;10.358;2023-04-15T15:44:44;9.70;99.90
54158;DHT22;40065;49.894;10.358;2023-04-15T15:49:50;9.80;99.90
54158;DHT22;40065;49.894;10.358;2023-04-15T15:54:52;9.70;99.90
54158;DHT22;40065;49.894;10.358;2023-04-15T15:59:54;9.50;99.90
54158;DHT22;40065;49.894;10.358;2023-04-15T16:05:13;9.60;99.90
54158;DHT22;40065;49.894;10.358;2023-04-15T16:10:15;9.40;99.90
54158;DHT22;40065;49.894;10.358;2023-04-15T16:15:17;9.30;99.90
54158;DHT22;40065;49.894;10.358;2023-04-15T16:20:19;9.30;99.90
54158;DHT22;40065;49.894;10.358;2023-04-15T16:25:21;9.40;99.90
54158;DHT22;40065;49.894;10.358;2023-04-15T16:30:23;9.40;99.90
54158;DHT22;40065;49.894;10.358;2023-04-15T16:35:24;9.50;99.90
54158;DHT22;40065;49.894;10.358;2023-04-15T16:40:26;9.40;99.90
54158;DHT22;40065;49.894;10.358;2023-04-15T16:45:28;9.50;99.90
54158;DHT22;40065;49.894;10.358;2023-04-15T16:50:30;9.60;99.90
54158;DHT22;40065;49.894;10.358;2023-04-15T16:55:31;9.60;99.90
54158;DHT22;40065;49.894;10.358;2023-04-15T17:00:33;9.40;99.90
54158;DHT22;40065;49.894;10.358;2023-04-15T17:05:37;9.30;99.90
54158;DHT22;40065;49.894;10.358;2023-04-15T17:10:39;9.20;99.90
54158;DHT22;40065;49.894;10.358;2023-04-15T17:15:41;9.20;99.90
54158;DHT22;40065;49.894;10.358;2023-04-15T17:20:43;9.10;99.90
54158;DHT22;40065;49.894;10.358;2023-04-15T17:25:44;9.10;99.90
54158;DHT22;40065;49.894;10.358;2023-04-15T17:30:46;9.10;99.90
54158;DHT22;40065;49.894;10.358;2023-04-15T17:35:51;9.10;99.90
54158;DHT22;40065;49.894;10.358;2023-04-15T17:40:53;8.90;99.90
54158;DHT22;40065;49.894;10.358;2023-04-15T17:45:55;9.00;99.90
54158;DHT22;40065;49.894;10.358;2023-04-15T17:50:59;9.10;99.90
54158;DHT22;40065;49.894;10.358;2023-04-15T17:56:01;9.10;99.90
54158;DHT22;40065;49.894;10.358;2023-04-15T18:01:03;9.00;99.90
54158;DHT22;40065;49.894;10.358;2023-04-15T18:06:05;9.10;99.90
54158;DHT22;40065;49.894;10.358;2023-04-15T18:11:07;8.90;99.90
54158;DHT22;40065;49.894;10.358;2023-04-15T18:16:09;8.90;99.90
54158;DHT22;40065;49.894;10.358;2023-04-15T18:21:11;8.90;99.90
54158;DHT22;40065;49.894;10.358;2023-04-15T18:26:15;8.80;99.90
54158;DHT22;40065;49.894;10.358;2023-04-15T18:31:25;8.70;99.90
54158;DHT22;40065;49.894;10.358;2023-04-15T18:36:27;8.80;99.90
54158;DHT22;40065;49.894;10.358;2023-04-15T18:41:30;8.80;99.90
54158;DHT22;40065;49.894;10.358;2023-04-15T18:46:31;8.90;99.90
54158;DHT22;40065;49.894;10.358;2023-04-15T18:51:33;9.00;99.90
54158;DHT22;40065;49.894;10.358;2023-04-15T18:56:35;9.00;99.90
54158;DHT22;40065;49.894;10.358;2023-04-15T19:01:37;8.90;99.90
54158;DHT22;40065;49.894;10.358;2023-04-15T19:06:39;8.90;99.90
54158;DHT22;40065;49.894;10.358;2023-04-15T19:11:41;8.90;99.90
54158;DHT22;40065;49.894;10.358;2023-04-15T19:16:44;8.90;99.90
54158;DHT22;40065;49.894;10.358;2023-04-15T19:21:45;8.90;99.90
54158;DHT22;40065;49.894;10.358;2023-04-15T19:26:50;8.90;99.90
54158;DHT22;40065;49.894;10.358;2023-04-15T19:31:52;8.80;99.90
54158;DHT22;40065;49.894;10.358;2023-04-15T19:36:53;8.70;99.90
54158;DHT22;40065;49.894;10.358;2023-04-15T19:41:56;8.70;99.90
54158;DHT22;40065;49.894;10.358;2023-04-15T19:46:59;8.80;99.90
54158;DHT22;40065;49.894;10.358;2023-04-15T19:52:01;8.70;99.90
54158;DHT22;40065;49.894;10.358;2023-04-15T19:57:05;8.80;99.90
54158;DHT22;40065;49.894;10.358;2023-04-15T20:02:07;8.80;99.90
54158;DHT22;40065;49.894;10.358;2023-04-15T20:07:12;8.80;99.90
54158;DHT22;40065;49.894;10.358;2023-04-15T20:12:29;8.80;99.90
54158;DHT22;40065;49.894;10.358;2023-04-15T20:17:51;8.80;99.90
54158;DHT22;40065;49.894;10.358;2023-04-15T20:22:53;8.70;99.90
54158;DHT22;40065;49.894;10.358;2023-04-15T20:27:55;8.70;99.90
54158;DHT22;40065;49.894;10.358;2023-04-15T20:33:01;8.80;99.90
54158;DHT22;40065;49.894;10.358;2023-04-15T20:38:03;8.70;99.90
54158;DHT22;40065;49.894;10.358;2023-04-15T20:43:05;8.80;99.90
54158;DHT22;40065;49.894;10.358;2023-04-15T20:48:07;8.80;99.90
54158;DHT22;40065;49.894;10.358;2023-04-15T20:53:09;8.70;99.90
54158;DHT22;40065;49.894;10.358;2023-04-15T20:58:11;8.70;99.90
54158;DHT22;40065;49.894;10.358;2023-04-15T21:03:13;8.70;99.90
54158;DHT22;40065;49.894;10.358;2023-04-15T21:08:21;8.70;99.90
54158;DHT22;40065;49.894;10.358;2023-04-15T21:13:29;8.80;99.90
54158;DHT22;40065;49.894;10.358;2023-04-15T21:18:31;8.80;99.90
54158;DHT22;40065;49.894;10.358;2023-04-15T21:23:33;9.10;99.90
54158;DHT22;40065;49.894;10.358;2023-04-15T21:28:36;9.10;99.90
54158;DHT22;40065;49.894;10.358;2023-04-15T21:33:39;9.00;99.90
54158;DHT22;40065;49.894;10.358;2023-04-15T21:38:41;9.00;99.90
54158;DHT22;40065;49.894;10.358;2023-04-15T21:43:42;9.10;99.90
54158;DHT22;40065;49.894;10.358;2023-04-15T21:48:45;9.00;99.90
54158;DHT22;40065;49.894;10.358;2023-04-15T21:53:46;9.00;99.90
54158;DHT22;40065;49.894;10.358;2023-04-15T21:58:48;9.00;99.90
54158;DHT22;40065;49.894;10.358;2023-04-15T22:03:51;8.90;99.90
54158;DHT22;40065;49.894;10.358;2023-04-15T22:08:54;8.90;99.90
54158;DHT22;40065;49.894;10.358;2023-04-15T22:13:58;8.90;99.90
54158;DHT22;40065;49.894;10.358;2023-04-15T22:19:00;8.90;99.90
54158;DHT22;40065;49.894;10.358;2023-04-15T22:24:04;8.90;99.90
54158;DHT22;40065;49.894;10.358;2023-04-15T22:29:26;9.10;99.90
54158;DHT22;40065;49.894;10.358;2023-04-15T22:34:28;9.00;99.90
54158;DHT22;40065;49.894;10.358;2023-04-15T22:39:30;9.00;99.90
54158;DHT22;40065;49.894;10.358;2023-04-15T22:44:32;8.90;99.90
54158;DHT22;40065;49.894;10.358;2023-04-15T22:49:34;9.00;99.90
54158;DHT22;40065;49.894;10.358;2023-04-15T22:54:36;9.00;99.90
54158;DHT22;40065;49.894;10.358;2023-04-15T22:59:38;9.00;99.90
54158;DHT22;40065;49.894;10.358;2023-04-15T23:04:40;9.00;99.90
54158;DHT22;40065;49.894;10.358;2023-04-15T23:09:42;9.00;99.90
54158;DHT22;40065;49.894;10.358;2023-04-15T23:14:43;9.20;99.90
54158;DHT22;40065;49.894;10.358;2023-04-15T23:19:45;9.10;99.90
54158;DHT22;40065;49.894;10.358;2023-04-15T23:24:47;9.10;99.90
54158;DHT22;40065;49.894;10.358;2023-04-15T23:29:49;9.00;99.90
54158;DHT22;40065;49.894;10.358;2023-04-15T23:34:50;9.10;99.90
54158;DHT22;40065;49.894;10.358;2023-04-15T23:39:52;9.00;99.90
54158;DHT22;40065;49.894;10.358;2023-04-15T23:44:56;9.10;99.90
54158;DHT22;40065;49.894;10.358;2023-04-15T23:49:58;9.00;99.90
54158;DHT22;40065;49.894;10.358;2023-04-15T23:54:59;9.10;99.90
